createdAt,value
2023-08-07T00:00:10.192Z,8.07
2023-08-07T00:02:38.361Z,10.73
2023-08-07T00:05:07.118Z,12.80
2023-08-07T00:07:34.980Z,14.57
2023-08-07T00:10:04.349Z,10.17
2023-08-07T00:12:33.596Z,7.87
2023-08-07T00:15:01.764Z,10.30
2023-08-07T00:17:29.961Z,8.73
2023-08-07T00:19:58.160Z,13.43
2023-08-07T00:22:27.196Z,10.93
2023-08-07T00:24:55.186Z,11.07
2023-08-07T00:27:23.142Z,13.97
2023-08-07T00:29:52.630Z,14.03
2023-08-07T00:32:20.582Z,6.90
2023-08-07T00:34:48.751Z,10.70
2023-08-07T00:37:16.665Z,13.60
2023-08-07T00:39:44.681Z,9.60
2023-08-07T00:42:12.610Z,8.67
2023-08-07T00:44:40.556Z,12.27
2023-08-07T00:47:10.086Z,10.37
2023-08-07T00:49:38.636Z,11.97
2023-08-07T00:52:07.229Z,11.37
2023-08-07T00:54:35.307Z,10.83
2023-08-07T00:57:12.790Z,10.27
2023-08-07T00:59:41.688Z,9.57
2023-08-07T01:02:14.253Z,10.70
2023-08-07T01:04:42.636Z,10.50
2023-08-07T01:07:11.087Z,10.07
2023-08-07T01:09:39.111Z,7.17
2023-08-07T01:12:16.590Z,10.37
2023-08-07T01:14:52.159Z,10.10
2023-08-07T01:17:24.022Z,11.47
2023-08-07T01:19:53.528Z,11.57
2023-08-07T01:22:22.880Z,7.83
2023-08-07T01:24:52.589Z,6.70
2023-08-07T01:27:33.480Z,10.80
2023-08-07T01:30:07.103Z,9.50
2023-08-07T01:32:41.026Z,9.07
2023-08-07T01:35:10.382Z,13.93
2023-08-07T01:37:44.205Z,11.00
2023-08-07T01:40:13.808Z,8.67
2023-08-07T01:42:41.977Z,12.93
2023-08-07T01:45:10.380Z,12.47
2023-08-07T01:47:38.381Z,7.10
2023-08-07T01:50:06.807Z,12.87
2023-08-07T01:52:35.108Z,11.60
2023-08-07T01:55:04.490Z,12.57
2023-08-07T01:57:32.580Z,8.93
2023-08-07T02:00:00.926Z,11.60
2023-08-07T02:02:28.839Z,10.00
2023-08-07T02:04:56.796Z,11.40
2023-08-07T02:07:24.750Z,13.20
2023-08-07T02:09:52.639Z,9.00
2023-08-07T02:12:22.009Z,8.63
2023-08-07T02:14:49.927Z,10.93
2023-08-07T02:17:17.810Z,10.43
2023-08-07T02:19:45.745Z,9.77
2023-08-07T02:22:13.679Z,10.40
2023-08-07T02:24:41.538Z,13.03
2023-08-07T02:27:09.468Z,8.90
2023-08-07T02:29:38.750Z,12.33
2023-08-07T02:32:07.457Z,11.47
2023-08-07T02:34:35.426Z,6.40
2023-08-07T02:37:03.422Z,7.73
2023-08-07T02:39:31.295Z,12.00
2023-08-07T02:41:59.173Z,15.40
2023-08-07T02:44:27.045Z,9.63
2023-08-07T02:46:56.529Z,10.97
2023-08-07T02:49:24.635Z,10.87
2023-08-07T02:51:52.528Z,11.97
2023-08-07T02:54:20.431Z,10.83
2023-08-07T02:56:49.868Z,16.00
2023-08-07T02:59:18.140Z,9.60
2023-08-07T03:01:46.442Z,7.73
2023-08-07T03:04:15.761Z,6.17
2023-08-07T03:06:43.643Z,12.73
2023-08-07T03:09:11.695Z,13.80
2023-08-07T03:11:39.597Z,11.03
2023-08-07T03:14:07.561Z,6.97
2023-08-07T03:16:35.469Z,11.50
2023-08-07T03:19:03.325Z,8.63
2023-08-07T03:21:32.596Z,6.83
2023-08-07T03:24:00.893Z,12.20
2023-08-07T03:26:28.786Z,8.93
2023-08-07T03:28:56.691Z,9.80
2023-08-07T03:31:24.671Z,11.47
2023-08-07T03:33:52.651Z,9.47
2023-08-07T03:36:20.627Z,8.37
2023-08-07T03:38:49.938Z,12.53
2023-08-07T03:41:17.854Z,9.13
2023-08-07T03:43:45.766Z,14.07
2023-08-07T03:46:13.713Z,15.97
2023-08-07T03:48:41.582Z,12.60
2023-08-07T03:51:10.187Z,6.93
2023-08-07T03:53:38.442Z,9.90
2023-08-07T03:56:07.850Z,10.37
2023-08-07T03:58:35.876Z,15.87
2023-08-07T04:01:04.042Z,11.27
2023-08-07T04:03:32.384Z,7.47
2023-08-07T04:06:01.538Z,11.83
2023-08-07T04:08:29.562Z,10.53
2023-08-07T04:11:01.642Z,8.03
2023-08-07T04:13:31.430Z,10.50
2023-08-07T04:15:59.899Z,8.27
2023-08-07T04:18:27.991Z,7.37
2023-08-07T04:20:56.828Z,7.97
2023-08-07T04:23:25.792Z,9.40
2023-08-07T04:25:55.065Z,7.73
2023-08-07T04:28:23.259Z,12.20
2023-08-07T04:30:53.770Z,6.77
2023-08-07T04:33:22.411Z,8.30
2023-08-07T04:35:50.601Z,12.43
2023-08-07T04:38:19.057Z,6.80
2023-08-07T04:40:47.996Z,10.47
2023-08-07T04:43:16.177Z,8.53
2023-08-07T04:45:46.100Z,8.37
2023-08-07T04:48:16.064Z,7.00
2023-08-07T04:50:44.140Z,10.53
2023-08-07T04:53:12.029Z,9.23
2023-08-07T04:55:40.840Z,8.27
2023-08-07T04:58:08.862Z,7.83
2023-08-07T05:00:36.879Z,5.43
2023-08-07T05:03:05.345Z,8.43
2023-08-07T05:05:34.892Z,7.60
2023-08-07T05:08:03.043Z,9.67
2023-08-07T05:10:30.956Z,9.87
2023-08-07T05:12:59.066Z,7.07
2023-08-07T05:15:29.648Z,10.40
2023-08-07T05:17:57.684Z,5.77
2023-08-07T05:20:25.745Z,8.20
2023-08-07T05:22:55.015Z,8.13
2023-08-07T05:25:23.557Z,10.97
2023-08-07T05:27:51.483Z,9.87
2023-08-07T05:30:19.844Z,16.50
2023-08-07T05:32:47.825Z,7.60
2023-08-07T05:35:15.915Z,13.53
2023-08-07T05:37:44.179Z,8.47
2023-08-07T05:40:13.740Z,6.80
2023-08-07T05:42:42.687Z,8.27
2023-08-07T05:45:12.273Z,10.60
2023-08-07T05:47:40.299Z,6.60
2023-08-07T05:50:09.188Z,9.50
2023-08-07T05:52:37.212Z,9.67
2023-08-07T05:55:07.625Z,8.87
2023-08-07T05:57:37.319Z,8.30
2023-08-07T06:00:06.557Z,6.00
2023-08-07T06:02:34.557Z,6.47
2023-08-07T06:05:02.708Z,6.53
2023-08-07T06:07:30.690Z,11.90
2023-08-07T06:09:58.785Z,10.50
2023-08-07T06:12:26.677Z,11.97
2023-08-07T06:14:56.132Z,10.17
2023-08-07T06:17:24.063Z,8.40
2023-08-07T06:19:51.998Z,7.10
2023-08-07T06:22:19.913Z,9.80
2023-08-07T06:24:47.878Z,8.20
2023-08-07T06:27:15.818Z,7.23
2023-08-07T06:29:43.873Z,6.53
2023-08-07T06:32:13.144Z,10.37
2023-08-07T06:34:41.103Z,6.73
2023-08-07T06:37:09.340Z,10.67
2023-08-07T06:39:37.454Z,8.90
2023-08-07T06:42:06.085Z,8.53
2023-08-07T06:44:34.020Z,8.77
2023-08-07T06:47:02.014Z,7.73
2023-08-07T06:49:32.763Z,11.53
2023-08-07T06:52:00.686Z,10.43
2023-08-07T06:54:28.611Z,9.40
2023-08-07T06:56:56.649Z,7.97
2023-08-07T06:59:24.897Z,11.07
2023-08-07T07:01:53.309Z,9.97
2023-08-07T07:04:21.320Z,11.77
2023-08-07T07:06:50.532Z,8.53
2023-08-07T07:09:18.430Z,12.13
2023-08-07T07:11:46.470Z,6.43
2023-08-07T07:14:14.385Z,10.67
2023-08-07T07:16:43.226Z,9.97
2023-08-07T07:19:11.246Z,9.83
2023-08-07T07:21:39.155Z,7.27
2023-08-07T07:24:08.572Z,8.20
2023-08-07T07:26:36.646Z,10.30
2023-08-07T07:29:04.673Z,5.87
2023-08-07T07:31:32.759Z,11.13
2023-08-07T07:34:01.000Z,10.17
2023-08-07T07:36:28.986Z,7.90
2023-08-07T07:38:56.960Z,9.87
2023-08-07T07:41:26.403Z,10.70
2023-08-07T07:43:57.062Z,6.07
2023-08-07T07:46:25.741Z,9.13
2023-08-07T07:48:53.696Z,8.27
2023-08-07T07:51:21.618Z,7.77
2023-08-07T07:54:00.720Z,9.97
2023-08-07T07:56:39.096Z,11.87
2023-08-07T07:59:09.115Z,8.93
2023-08-07T08:01:37.923Z,8.87
2023-08-07T08:04:06.569Z,5.13
2023-08-07T08:06:34.588Z,7.23
2023-08-07T08:09:05.412Z,10.97
2023-08-07T08:11:34.088Z,12.80
2023-08-07T08:14:03.484Z,9.63
2023-08-07T08:16:31.432Z,8.60
2023-08-07T08:18:59.349Z,11.07
2023-08-07T08:21:27.404Z,10.70
2023-08-07T08:23:55.523Z,8.40
2023-08-07T08:26:23.397Z,10.27
2023-08-07T08:28:51.299Z,11.27
2023-08-07T08:31:22.421Z,9.57
2023-08-07T08:33:50.574Z,10.87
2023-08-07T08:36:18.746Z,8.40
2023-08-07T08:38:49.207Z,9.70
2023-08-07T08:41:18.729Z,11.80
2023-08-07T08:43:48.976Z,10.53
2023-08-07T08:46:17.843Z,8.30
2023-08-07T08:48:53.019Z,7.43
2023-08-07T08:51:22.892Z,8.70
2023-08-07T08:53:52.977Z,10.37
2023-08-07T08:56:23.487Z,8.20
2023-08-07T08:58:52.654Z,6.37
2023-08-07T09:01:21.940Z,8.17
2023-08-07T09:03:53.840Z,8.13
2023-08-07T09:06:22.018Z,9.73
2023-08-07T09:08:51.019Z,7.00
2023-08-07T09:11:20.086Z,7.77
2023-08-07T09:13:51.121Z,10.03
2023-08-07T09:16:20.295Z,10.73
2023-08-07T09:18:49.785Z,12.53
2023-08-07T09:21:19.872Z,5.37
2023-08-07T09:23:47.777Z,8.77
2023-08-07T09:26:23.212Z,6.47
2023-08-07T09:28:53.852Z,7.80
2023-08-07T09:31:22.418Z,5.97
2023-08-07T09:33:51.096Z,7.70
2023-08-07T09:36:20.451Z,9.83
2023-08-07T09:38:51.987Z,9.00
2023-08-07T09:41:21.164Z,6.07
2023-08-07T09:43:49.048Z,6.33
2023-08-07T09:46:19.558Z,7.67
2023-08-07T09:48:47.656Z,5.33
2023-08-07T09:51:15.585Z,9.07
2023-08-07T09:53:44.886Z,8.57
2023-08-07T09:56:15.704Z,6.37
2023-08-07T09:58:49.129Z,7.10
2023-08-07T10:01:18.935Z,8.77
2023-08-07T10:03:48.168Z,6.17
2023-08-07T10:06:16.923Z,6.83
2023-08-07T10:08:47.353Z,7.73
2023-08-07T10:11:19.121Z,5.20
2023-08-07T10:13:47.685Z,8.37
2023-08-07T10:16:16.329Z,6.20
2023-08-07T10:18:44.823Z,5.07
2023-08-07T10:21:13.332Z,9.47
2023-08-07T10:23:42.093Z,7.30
2023-08-07T10:26:13.090Z,5.97
2023-08-07T10:28:42.366Z,5.27
2023-08-07T10:31:11.688Z,8.50
2023-08-07T10:33:39.669Z,6.83
2023-08-07T10:36:11.502Z,11.30
2023-08-07T10:38:39.590Z,3.70
2023-08-07T10:41:14.307Z,5.70
2023-08-07T10:43:43.361Z,6.20
2023-08-07T10:46:14.929Z,7.67
2023-08-07T10:48:44.707Z,5.57
2023-08-07T10:51:15.156Z,3.83
2023-08-07T10:53:45.485Z,4.10
2023-08-07T10:56:18.900Z,5.17
2023-08-07T10:58:52.074Z,5.03
2023-08-07T11:01:24.656Z,3.97
2023-08-07T11:03:54.251Z,6.10
2023-08-07T11:06:27.341Z,5.83
2023-08-07T11:08:55.808Z,4.60
2023-08-07T11:11:25.274Z,4.17
2023-08-07T11:13:53.340Z,5.20
2023-08-07T11:16:22.609Z,5.57
2023-08-07T11:18:51.542Z,4.63
2023-08-07T11:21:20.759Z,6.40
2023-08-07T11:23:48.709Z,6.90
2023-08-07T11:26:16.819Z,7.87
2023-08-07T11:28:46.270Z,8.80
2023-08-07T11:31:14.216Z,6.70
2023-08-07T11:33:42.873Z,6.97
2023-08-07T11:36:13.672Z,2.97
2023-08-07T11:38:44.638Z,6.23
2023-08-07T11:41:14.099Z,4.37
2023-08-07T11:43:42.724Z,6.80
2023-08-07T11:46:13.492Z,3.90
2023-08-07T11:48:42.770Z,5.57
2023-08-07T11:51:10.998Z,5.80
2023-08-07T11:53:41.169Z,5.63
2023-08-07T11:56:10.445Z,4.93
2023-08-07T11:58:40.176Z,5.67
2023-08-07T12:01:08.363Z,4.37
2023-08-07T12:03:40.582Z,6.50
2023-08-07T12:06:09.983Z,5.00
2023-08-07T12:08:40.070Z,6.27
2023-08-07T12:11:10.120Z,7.27
2023-08-07T12:13:40.490Z,5.87
2023-08-07T12:16:09.491Z,6.13
2023-08-07T12:18:39.818Z,5.00
2023-08-07T12:21:09.665Z,5.37
2023-08-07T12:23:38.702Z,4.30
2023-08-07T12:26:08.363Z,5.23
2023-08-07T12:28:37.123Z,6.10
2023-08-07T12:31:05.664Z,3.50
2023-08-07T12:33:33.660Z,8.33
2023-08-07T12:36:03.794Z,2.83
2023-08-07T12:38:32.049Z,4.70
2023-08-07T12:41:00.390Z,4.03
2023-08-07T12:43:28.634Z,5.20
2023-08-07T12:46:31.565Z,2.90
2023-08-07T12:48:44.431Z,4.80
2023-08-07T12:51:13.761Z,4.37
2023-08-07T12:53:41.759Z,5.33
2023-08-07T12:56:09.801Z,3.60
2023-08-07T12:58:38.543Z,5.47
2023-08-07T13:01:07.489Z,8.27
2023-08-07T13:03:35.570Z,4.40
2023-08-07T13:06:06.498Z,4.33
2023-08-07T13:08:36.162Z,5.00
2023-08-07T13:11:04.343Z,6.90
2023-08-07T13:13:32.400Z,3.33
2023-08-07T13:16:00.322Z,4.17
2023-08-07T13:18:28.288Z,3.00
2023-08-07T13:20:57.618Z,6.23
2023-08-07T13:23:25.690Z,5.77
2023-08-07T13:25:56.904Z,5.73
2023-08-07T13:28:24.878Z,4.57
2023-08-07T13:30:54.966Z,6.90
2023-08-07T13:33:23.417Z,5.87
2023-08-07T13:35:51.502Z,5.70
2023-08-07T13:38:20.205Z,4.93
2023-08-07T13:40:48.130Z,6.17
2023-08-07T13:43:21.754Z,7.60
2023-08-07T13:45:51.948Z,7.90
2023-08-07T13:48:19.970Z,4.83
2023-08-07T13:50:48.166Z,5.37
2023-08-07T13:53:16.483Z,6.87
2023-08-07T13:55:45.585Z,4.60
2023-08-07T13:58:16.257Z,6.93
2023-08-07T14:00:45.850Z,6.20
2023-08-07T14:03:14.272Z,5.43
2023-08-07T14:05:42.578Z,6.37
2023-08-07T14:08:12.222Z,7.30
2023-08-07T14:10:42.279Z,5.73
2023-08-07T14:13:12.546Z,6.13
2023-08-07T14:15:40.876Z,5.43
2023-08-07T14:18:11.498Z,2.20
2023-08-07T14:20:56.206Z,4.37
2023-08-07T14:23:28.120Z,5.23
2023-08-07T14:25:57.600Z,8.70
2023-08-07T14:28:26.645Z,6.07
2023-08-07T14:30:54.798Z,3.67
2023-08-07T14:33:24.109Z,7.87
2023-08-07T14:35:52.046Z,3.77
2023-08-07T14:38:20.011Z,2.43
2023-08-07T14:40:47.891Z,3.57
2023-08-07T14:43:15.850Z,2.80
2023-08-07T14:45:43.710Z,3.73
2023-08-07T14:48:11.713Z,4.57
2023-08-07T14:50:41.190Z,5.47
2023-08-07T14:53:09.190Z,7.87
2023-08-07T14:55:37.130Z,4.17
2023-08-07T14:58:05.244Z,7.13
2023-08-07T15:00:33.220Z,5.23
2023-08-07T15:03:01.417Z,3.77
2023-08-07T15:05:29.374Z,7.23
2023-08-07T15:07:58.661Z,5.00
2023-08-07T15:10:26.600Z,4.23
2023-08-07T15:12:55.078Z,3.07
2023-08-07T15:15:23.048Z,3.27
2023-08-07T15:17:51.015Z,5.53
2023-08-07T15:20:20.859Z,3.37
2023-08-07T15:22:49.855Z,3.27
2023-08-07T15:25:19.662Z,3.13
2023-08-07T15:27:47.562Z,2.70
2023-08-07T15:30:15.484Z,5.00
2023-08-07T15:32:43.406Z,6.57
2023-08-07T15:35:11.633Z,7.70
2023-08-07T15:37:39.645Z,2.43
2023-08-07T15:40:09.142Z,2.60
2023-08-07T15:42:38.534Z,8.13
2023-08-07T15:45:07.318Z,4.97
2023-08-07T15:47:35.296Z,4.60
2023-08-07T15:50:03.411Z,4.70
2023-08-07T15:52:31.378Z,3.00
2023-08-07T15:54:59.299Z,2.33
2023-08-07T15:57:27.525Z,2.80
2023-08-07T15:59:57.527Z,3.23
2023-08-07T16:02:25.631Z,3.77
2023-08-07T16:04:53.723Z,3.43
2023-08-07T16:07:21.797Z,5.93
2023-08-07T16:09:49.739Z,5.17
2023-08-07T16:12:18.561Z,3.67
2023-08-07T16:14:46.580Z,3.70
2023-08-07T16:17:16.024Z,4.17
2023-08-07T16:19:44.109Z,5.93
2023-08-07T16:22:12.162Z,3.53
2023-08-07T16:24:40.113Z,3.33
2023-08-07T16:27:08.582Z,6.43
2023-08-07T16:29:36.665Z,5.87
2023-08-07T16:32:05.554Z,4.47
2023-08-07T16:34:35.163Z,3.53
2023-08-07T16:37:03.892Z,2.50
2023-08-07T16:39:31.862Z,2.20
2023-08-07T16:41:59.788Z,2.37
2023-08-07T16:44:27.839Z,2.37
2023-08-07T16:46:56.372Z,2.93
2023-08-07T16:49:24.715Z,3.63
2023-08-07T16:51:55.933Z,2.77
2023-08-07T16:54:24.019Z,1.80
2023-08-07T16:56:51.995Z,3.50
2023-08-07T16:59:20.080Z,2.70
2023-08-07T17:01:48.160Z,1.63
2023-08-07T17:04:16.203Z,1.53
2023-08-07T17:06:44.258Z,1.50
2023-08-07T17:09:13.503Z,3.20
2023-08-07T17:11:41.558Z,2.30
2023-08-07T17:14:10.774Z,3.43
2023-08-07T17:16:38.824Z,2.00
2023-08-07T17:19:06.886Z,2.73
2023-08-07T17:21:34.879Z,3.00
2023-08-07T17:24:02.967Z,1.60
2023-08-07T17:26:32.502Z,3.23
2023-08-07T17:29:01.234Z,1.70
2023-08-07T17:31:31.574Z,1.97
2023-08-07T17:33:59.631Z,4.87
2023-08-07T17:36:28.995Z,3.70
2023-08-07T17:38:57.003Z,1.67
2023-08-07T17:41:25.063Z,4.00
2023-08-07T17:43:54.333Z,3.40
2023-08-07T17:46:22.473Z,3.33
2023-08-07T17:48:50.414Z,3.30
2023-08-07T17:51:18.316Z,4.27
2023-08-07T17:53:46.205Z,4.30
2023-08-07T17:56:14.112Z,1.63
2023-08-07T17:58:42.083Z,3.23
2023-08-07T18:01:11.380Z,4.10
2023-08-07T18:03:39.338Z,2.20
2023-08-07T18:06:07.300Z,2.47
2023-08-07T18:08:35.272Z,1.93
2023-08-07T18:11:03.279Z,2.40
2023-08-07T18:13:31.236Z,1.87
2023-08-07T18:15:59.848Z,3.70
2023-08-07T18:18:29.145Z,3.37
2023-08-07T18:20:57.028Z,2.00
2023-08-07T18:23:26.177Z,1.87
2023-08-07T18:25:54.118Z,2.07
2023-08-07T18:28:22.065Z,2.93
2023-08-07T18:30:50.034Z,1.97
2023-08-07T18:33:18.006Z,1.40
2023-08-07T18:35:47.306Z,3.10
2023-08-07T18:38:15.183Z,4.30
2023-08-07T18:40:43.623Z,1.67
2023-08-07T18:43:11.712Z,1.57
2023-08-07T18:45:39.700Z,3.43
2023-08-07T18:48:08.932Z,1.53
2023-08-07T18:50:37.121Z,4.00
2023-08-07T18:53:06.505Z,2.40
2023-08-07T18:55:35.270Z,4.80
2023-08-07T18:58:03.463Z,6.30
2023-08-07T19:00:31.435Z,3.10
2023-08-07T19:02:59.439Z,3.43
2023-08-07T19:05:27.433Z,4.17
2023-08-07T19:07:55.348Z,3.07
2023-08-07T19:10:24.739Z,1.37
2023-08-07T19:12:52.682Z,4.07
2023-08-07T19:15:20.677Z,3.03
2023-08-07T19:17:48.704Z,2.17
2023-08-07T19:20:16.917Z,3.03
2023-08-07T19:22:44.895Z,3.27
2023-08-07T19:25:12.967Z,2.13
2023-08-07T19:27:42.265Z,3.40
2023-08-07T19:30:11.879Z,2.93
2023-08-07T19:32:39.835Z,2.40
2023-08-07T19:35:08.346Z,5.13
2023-08-07T19:37:36.251Z,2.10
2023-08-07T19:40:07.971Z,4.20
2023-08-07T19:42:35.994Z,3.00
2023-08-07T19:45:06.010Z,3.20
2023-08-07T19:47:36.515Z,4.03
2023-08-07T19:50:05.261Z,2.57
2023-08-07T19:52:33.151Z,2.73
2023-08-07T19:55:01.108Z,3.67
2023-08-07T19:57:29.119Z,1.73
2023-08-07T19:59:57.018Z,1.87
2023-08-07T20:02:26.397Z,4.70
2023-08-07T20:04:54.511Z,2.23
2023-08-07T20:07:22.591Z,3.33
2023-08-07T20:09:50.618Z,3.13
2023-08-07T20:12:20.059Z,1.40
2023-08-07T20:14:48.112Z,2.53
2023-08-07T20:17:16.187Z,1.77
2023-08-07T20:19:47.781Z,3.00
2023-08-07T20:22:15.931Z,2.57
2023-08-07T20:24:43.923Z,4.17
2023-08-07T20:27:11.947Z,2.50
2023-08-07T20:29:40.017Z,1.93
2023-08-07T20:32:08.633Z,3.33
2023-08-07T20:34:37.794Z,5.63
2023-08-07T20:37:08.169Z,5.00
2023-08-07T20:39:36.431Z,2.07
2023-08-07T20:42:05.315Z,2.50
2023-08-07T20:44:33.282Z,1.80
2023-08-07T20:47:01.532Z,2.73
2023-08-07T20:49:29.472Z,3.90
2023-08-07T20:51:57.502Z,7.40
2023-08-07T20:54:27.824Z,2.63
2023-08-07T20:56:55.772Z,3.57
2023-08-07T20:59:23.785Z,2.70
2023-08-07T21:01:52.242Z,3.73
2023-08-07T21:04:20.964Z,3.23
2023-08-07T21:06:51.464Z,1.57
2023-08-07T21:09:19.451Z,2.70
2023-08-07T21:11:48.848Z,1.43
2023-08-07T21:14:16.775Z,4.13
2023-08-07T21:16:45.053Z,3.17
2023-08-07T21:19:13.459Z,3.20
2023-08-07T21:21:41.468Z,1.60
2023-08-07T21:24:12.720Z,4.17
2023-08-07T21:26:41.597Z,2.37
2023-08-07T21:29:11.189Z,6.20
2023-08-07T21:31:39.380Z,2.37
2023-08-07T21:34:07.430Z,3.27
2023-08-07T21:36:35.512Z,2.67
2023-08-07T21:39:03.595Z,3.03
2023-08-07T21:41:32.543Z,3.33
2023-08-07T21:44:00.488Z,5.10
2023-08-07T21:46:29.854Z,3.07
2023-08-07T21:48:57.795Z,3.73
2023-08-07T21:51:25.781Z,2.43
2023-08-07T21:53:53.684Z,3.80
2023-08-07T21:56:21.574Z,2.80
2023-08-07T21:58:49.489Z,2.63
2023-08-07T22:01:17.550Z,4.30
2023-08-07T22:03:46.975Z,3.07
2023-08-07T22:06:15.214Z,4.40
2023-08-07T22:08:43.681Z,2.20
2023-08-07T22:11:12.272Z,6.33
2023-08-07T22:13:46.602Z,4.20
2023-08-07T22:16:15.297Z,3.40
2023-08-07T22:18:43.540Z,2.87
2023-08-07T22:21:13.104Z,1.83
2023-08-07T22:23:41.601Z,4.40
2023-08-07T22:26:09.590Z,3.77
2023-08-07T22:28:38.155Z,2.90
2023-08-07T22:31:06.997Z,1.70
2023-08-07T22:33:36.218Z,2.10
2023-08-07T22:36:04.895Z,5.70
2023-08-07T22:38:34.127Z,6.03
2023-08-07T22:41:02.063Z,3.57
2023-08-07T22:43:29.979Z,3.70
2023-08-07T22:45:58.079Z,6.23
2023-08-07T22:48:26.013Z,4.20
2023-08-07T22:50:53.900Z,3.90
2023-08-07T22:53:21.817Z,4.80
2023-08-07T22:55:51.181Z,2.27
2023-08-07T22:58:19.136Z,3.27
2023-08-07T23:00:47.022Z,1.80
2023-08-07T23:03:14.957Z,1.70
2023-08-07T23:05:42.927Z,3.50
2023-08-07T23:08:11.518Z,2.67
2023-08-07T23:10:39.401Z,4.27
2023-08-07T23:13:08.688Z,4.97
2023-08-07T23:15:38.323Z,3.50
2023-08-07T23:18:06.803Z,3.07
2023-08-07T23:20:34.781Z,2.60
2023-08-07T23:23:02.733Z,6.63
2023-08-07T23:25:30.645Z,7.97
2023-08-07T23:27:58.560Z,3.30
2023-08-07T23:30:27.875Z,2.83
2023-08-07T23:32:55.890Z,4.53
2023-08-07T23:35:23.807Z,2.53
2023-08-07T23:37:51.727Z,2.93
2023-08-07T23:40:19.774Z,3.80
2023-08-07T23:42:47.712Z,4.87
2023-08-07T23:45:15.615Z,4.83
2023-08-07T23:47:44.887Z,2.70
2023-08-07T23:50:12.896Z,2.90
2023-08-07T23:52:40.809Z,3.23
2023-08-07T23:55:09.598Z,1.80
2023-08-07T23:57:37.673Z,2.37
